Time;durP1;ratioP1;P1;durP2;ratioP2;P2;SDS_P1;SDS_P2;PMS_P1;PMS_P2;Temp;Humidity;BMP_temperature;BMP_pressure;BME280_temperature;BME280_humidity;BME280_pressure;Samples;Min_cycle;Max_cycle;Signal;HPM_P1;HPM_P2
2022/10/11 00:02:07;;;;;;;12.07;2.07;;;9.40;99.90;;;;;;5037070;28;20203;-48
2022/10/11 00:04:34;;;;;;;6.67;1.90;;;9.40;99.90;;;;;;5039289;28;20720;-46
2022/10/11 00:07:00;;;;;;;8.57;2.50;;;9.40;99.90;;;;;;5042942;28;20656;-48
2022/10/11 00:09:27;;;;;;;6.80;1.90;;;9.40;99.90;;;;;;5034946;28;20207;-46
2022/10/11 00:11:56;;;;;;;7.70;1.67;;;9.40;99.90;;;;;;5028620;28;20218;-47
2022/10/11 00:14:23;;;;;;;12.50;2.37;;;9.30;99.90;;;;;;5038789;28;21049;-46
2022/10/11 00:16:51;;;;;;;12.53;2.00;;;9.30;99.90;;;;;;5036918;28;20208;-47
2022/10/11 00:19:17;;;;;;;10.97;1.67;;;9.30;99.90;;;;;;5028168;28;20212;-46
2022/10/11 00:21:44;;;;;;;7.33;2.10;;;9.30;99.90;;;;;;5038737;28;20903;-47
2022/10/11 00:24:12;;;;;;;7.57;1.87;;;9.30;99.90;;;;;;5032903;28;20199;-46
2022/10/11 00:26:39;;;;;;;6.50;1.73;;;9.30;99.90;;;;;;5029001;28;20203;-49
2022/10/11 00:29:07;;;;;;;8.10;2.20;;;9.30;99.90;;;;;;5040961;28;20597;-49
2022/10/11 00:31:34;;;;;;;9.10;1.43;;;9.30;99.90;;;;;;5042349;28;20680;-50
2022/10/11 00:34:00;;;;;;;6.27;1.83;;;9.30;99.90;;;;;;5027866;28;20210;-49
2022/10/11 00:36:27;;;;;;;6.00;1.83;;;9.30;99.90;;;;;;5042948;28;20194;-47
2022/10/11 00:38:53;;;;;;;14.03;1.93;;;9.30;99.90;;;;;;5025564;28;20223;-49
2022/10/11 00:41:20;;;;;;;7.50;1.80;;;9.20;99.90;;;;;;5043347;28;20226;-48
2022/10/11 00:43:47;;;;;;;6.97;1.63;;;9.20;99.90;;;;;;5024143;28;20288;-47
2022/10/11 00:46:28;;;;;;;9.03;2.07;;;9.20;99.90;;;;;;5043563;28;20553;-46
2022/10/11 00:49:01;;;;;;;9.30;1.50;;;9.20;99.90;;;;;;5041513;28;20479;-47
2022/10/11 00:51:37;;;;;;;6.83;1.73;;;9.10;99.90;;;;;;5035056;28;20205;-50
2022/10/11 00:54:05;;;;;;;8.90;1.47;;;9.10;99.90;;;;;;5035301;28;20675;-47
2022/10/11 00:56:36;;;;;;;9.43;2.10;;;9.10;99.90;;;;;;5032526;28;20199;-50
2022/10/11 00:59:04;;;;;;;6.37;1.53;;;9.10;99.90;;;;;;5038152;28;20231;-48
2022/10/11 01:01:33;;;;;;;7.20;1.70;;;9.10;99.90;;;;;;5041152;28;20226;-47
2022/10/11 01:04:00;;;;;;;7.47;1.77;;;9.10;99.90;;;;;;5040158;28;20312;-47
2022/10/11 01:06:27;;;;;;;9.60;2.00;;;9.10;99.90;;;;;;5037916;28;20200;-48
2022/10/11 01:08:54;;;;;;;10.97;2.03;;;9.10;99.90;;;;;;5034422;28;20223;-46
2022/10/11 01:11:25;;;;;;;11.33;2.00;;;9.20;99.90;;;;;;5043474;28;20528;-45
2022/10/11 01:14:10;;;;;;;11.53;2.40;;;9.20;99.90;;;;;;5028198;28;20207;-48
2022/10/11 01:16:46;;;;;;;8.63;1.97;;;9.20;99.90;;;;;;5044170;28;20191;-48
2022/10/11 01:19:27;;;;;;;7.73;1.80;;;9.20;99.90;;;;;;5023595;28;20214;-50
2022/10/11 01:22:05;;;;;;;8.23;1.97;;;9.20;99.90;;;;;;5030101;28;20234;-47
2022/10/11 01:25:00;;;;;;;9.10;2.00;;;9.20;99.90;;;;;;5038002;28;20756;-49
2022/10/11 01:27:42;;;;;;;10.23;2.10;;;9.20;99.90;;;;;;5044962;28;20188;-47
2022/10/11 01:30:25;;;;;;;9.80;2.00;;;9.20;99.90;;;;;;5029053;28;20299;-50
2022/10/11 01:33:02;;;;;;;9.60;1.60;;;9.10;99.90;;;;;;5045883;28;20196;-50
2022/10/11 01:35:37;;;;;;;12.53;2.57;;;9.10;99.90;;;;;;5044101;28;20372;-46
2022/10/11 01:38:13;;;;;;;8.90;2.00;;;9.10;99.90;;;;;;5041097;28;20198;-48
2022/10/11 01:40:46;;;;;;;7.07;1.77;;;9.10;99.90;;;;;;5040318;28;20281;-47
2022/10/11 01:43:15;;;;;;;13.90;1.77;;;9.00;99.90;;;;;;5034096;28;20549;-50
2022/10/11 01:45:44;;;;;;;8.47;1.60;;;9.00;99.90;;;;;;5028216;28;20206;-47
2022/10/11 01:48:33;;;;;;;9.53;1.80;;;9.00;99.90;;;;;;5043582;28;20230;-51
2022/10/11 01:51:03;;;;;;;8.13;1.40;;;9.00;99.90;;;;;;5046442;28;20199;-49
2022/10/11 01:54:03;;;;;;;10.33;2.07;;;9.00;99.90;;;;;;5038827;28;20218;-48
2022/10/11 01:57:02;;;;;;;8.70;1.60;;;9.00;99.90;;;;;;5032998;28;20230;-50
2022/10/11 01:59:41;;;;;;;14.60;2.23;;;9.00;99.90;;;;;;5034731;28;20222;-51
2022/10/11 02:02:23;;;;;;;5.63;1.80;;;8.90;99.90;;;;;;5039296;28;20238;-49
2022/10/11 02:04:55;;;;;;;7.43;2.00;;;8.90;99.90;;;;;;5043169;28;20928;-46
2022/10/11 02:07:30;;;;;;;7.90;1.83;;;8.80;99.90;;;;;;5041257;28;20200;-47
2022/10/11 02:10:05;;;;;;;5.73;1.47;;;8.80;99.90;;;;;;5042022;28;20242;-47
2022/10/11 02:12:37;;;;;;;7.17;1.80;;;8.80;99.90;;;;;;5031471;28;20202;-49
2022/10/11 02:15:08;;;;;;;9.37;2.20;;;8.80;99.90;;;;;;5045111;28;20278;-47
2022/10/11 02:17:41;;;;;;;3.97;1.73;;;8.80;99.90;;;;;;5028006;28;20222;-49
2022/10/11 02:20:13;;;;;;;10.53;1.90;;;8.80;99.90;;;;;;5045929;28;20221;-46
2022/10/11 02:22:45;;;;;;;7.53;2.10;;;8.80;99.90;;;;;;5040703;28;20218;-46
2022/10/11 02:25:17;;;;;;;9.53;2.03;;;8.80;99.90;;;;;;5039775;28;20214;-46
2022/10/11 02:27:47;;;;;;;8.67;2.03;;;8.70;99.90;;;;;;5036407;28;20230;-49
2022/10/11 02:30:14;;;;;;;10.73;1.93;;;8.70;99.90;;;;;;5046166;28;20207;-47
2022/10/11 02:32:46;;;;;;;9.17;2.20;;;8.70;99.90;;;;;;5026935;28;20203;-47
2022/10/11 02:35:14;;;;;;;12.40;1.93;;;8.70;99.90;;;;;;5045158;28;20222;-48
2022/10/11 02:37:46;;;;;;;11.07;1.87;;;8.70;99.90;;;;;;5035429;28;20231;-46
2022/10/11 02:40:19;;;;;;;12.20;1.60;;;8.70;99.90;;;;;;5041453;28;20219;-47
2022/10/11 02:42:52;;;;;;;8.43;2.03;;;8.60;99.90;;;;;;5036528;28;20223;-50
2022/10/11 02:45:26;;;;;;;11.90;1.97;;;8.60;99.90;;;;;;5024577;28;20196;-52
2022/10/11 02:47:55;;;;;;;9.73;1.90;;;8.60;99.90;;;;;;5021931;28;20290;-47
2022/10/11 02:50:22;;;;;;;9.00;2.10;;;8.60;99.90;;;;;;5044505;28;20215;-49
2022/10/11 02:52:49;;;;;;;9.93;1.90;;;8.60;99.90;;;;;;5041944;28;20180;-47
2022/10/11 02:55:16;;;;;;;8.80;2.20;;;8.60;99.90;;;;;;5044067;28;20192;-52
2022/10/11 02:57:43;;;;;;;5.33;1.43;;;8.60;99.90;;;;;;5031440;28;20207;-46
2022/10/11 03:00:12;;;;;;;10.67;2.10;;;8.50;99.90;;;;;;5045180;28;20208;-46
2022/10/11 03:02:39;;;;;;;6.43;1.97;;;8.50;99.90;;;;;;5023343;28;20707;-46
2022/10/11 03:05:07;;;;;;;8.97;1.90;;;8.50;99.90;;;;;;5044161;28;20710;-49
2022/10/11 03:07:36;;;;;;;10.20;1.93;;;8.50;99.90;;;;;;5041752;28;20249;-49
2022/10/11 03:10:03;;;;;;;5.33;1.93;;;8.50;99.90;;;;;;5043672;28;20239;-52
2022/10/11 03:12:30;;;;;;;10.27;2.20;;;8.50;99.90;;;;;;5037022;28;20204;-50
2022/10/11 03:14:57;;;;;;;5.53;1.70;;;8.50;99.90;;;;;;5035935;28;20203;-47
2022/10/11 03:17:23;;;;;;;4.73;1.83;;;8.50;99.90;;;;;;5037350;28;20198;-52
2022/10/11 03:19:50;;;;;;;7.80;1.73;;;8.50;99.90;;;;;;5035205;28;21010;-48
2022/10/11 03:22:18;;;;;;;5.67;2.10;;;8.50;99.90;;;;;;5044732;28;20244;-49
2022/10/11 03:24:45;;;;;;;9.97;2.40;;;8.50;99.90;;;;;;5040030;28;20196;-47
2022/10/11 03:27:12;;;;;;;11.13;2.00;;;8.50;99.90;;;;;;5044937;28;20195;-49
2022/10/11 03:29:39;;;;;;;12.10;2.63;;;8.50;99.90;;;;;;5027212;28;20220;-47
2022/10/11 03:32:07;;;;;;;9.00;2.13;;;8.50;99.90;;;;;;5044860;28;20247;-46
2022/10/11 03:34:33;;;;;;;6.20;1.90;;;8.50;99.90;;;;;;5019740;28;20208;-54
2022/10/11 03:37:00;;;;;;;9.90;2.70;;;8.60;99.90;;;;;;5043837;28;20294;-48
2022/10/11 03:39:29;;;;;;;9.13;2.30;;;8.60;99.90;;;;;;5041201;28;20280;-52
2022/10/11 03:41:55;;;;;;;9.43;2.20;;;8.60;99.90;;;;;;5042745;28;20207;-48
2022/10/11 03:44:23;;;;;;;10.77;2.60;;;8.60;99.90;;;;;;5036472;28;20283;-50
2022/10/11 03:46:49;;;;;;;9.73;2.00;;;8.70;99.90;;;;;;5034806;28;20347;-48
2022/10/11 03:49:16;;;;;;;8.73;2.40;;;8.70;99.90;;;;;;5029484;28;20231;-51
2022/10/11 03:51:43;;;;;;;10.30;2.17;;;8.70;99.90;;;;;;5040904;28;20207;-51
2022/10/11 03:54:10;;;;;;;8.17;2.37;;;8.70;99.90;;;;;;5043453;28;20568;-48
2022/10/11 03:56:39;;;;;;;9.20;2.53;;;8.70;99.90;;;;;;5040217;28;20207;-46
2022/10/11 03:59:05;;;;;;;9.23;2.40;;;8.70;99.90;;;;;;5032223;28;20215;-49
2022/10/11 04:01:36;;;;;;;9.73;2.57;;;8.70;99.90;;;;;;5034773;28;20711;-49
2022/10/11 04:04:04;;;;;;;12.17;3.23;;;8.70;99.90;;;;;;5028571;28;20207;-47
2022/10/11 04:06:30;;;;;;;14.97;3.07;;;8.80;99.90;;;;;;5035112;28;20203;-52
2022/10/11 04:08:57;;;;;;;8.27;2.20;;;8.70;99.90;;;;;;5043022;28;20234;-47
2022/10/11 04:11:25;;;;;;;10.67;2.30;;;8.70;99.90;;;;;;5037623;28;20206;-49
2022/10/11 04:13:54;;;;;;;8.43;2.77;;;8.70;99.90;;;;;;5039131;28;20966;-47
2022/10/11 04:16:21;;;;;;;9.37;2.23;;;8.70;99.90;;;;;;5035665;28;20210;-51
2022/10/11 04:18:48;;;;;;;6.63;2.57;;;8.60;99.90;;;;;;5019008;28;20234;-49
2022/10/11 04:21:14;;;;;;;7.43;2.43;;;8.60;99.90;;;;;;5042424;28;20202;-49
2022/10/11 04:23:41;;;;;;;7.57;2.17;;;8.60;99.90;;;;;;5037822;28;20910;-48
2022/10/11 04:26:08;;;;;;;10.03;2.60;;;8.60;99.90;;;;;;5038384;28;20215;-48
2022/10/11 04:28:35;;;;;;;10.50;2.57;;;8.50;99.90;;;;;;5039969;28;20221;-48
2022/10/11 04:31:05;;;;;;;13.50;2.40;;;8.50;99.90;;;;;;5039168;28;20209;-47
2022/10/11 04:33:32;;;;;;;11.77;2.47;;;8.50;99.90;;;;;;5033524;28;20273;-49
2022/10/11 04:35:59;;;;;;;14.10;2.90;;;8.50;99.90;;;;;;5028283;28;20203;-49
2022/10/11 04:38:26;;;;;;;6.10;2.30;;;8.50;99.90;;;;;;5033429;28;20207;-49
2022/10/11 04:40:53;;;;;;;17.13;3.23;;;8.50;99.90;;;;;;5036599;28;20207;-51
2022/10/11 04:43:20;;;;;;;8.97;3.10;;;8.40;99.90;;;;;;5041014;28;20276;-50
2022/10/11 04:45:47;;;;;;;12.83;2.90;;;8.40;99.90;;;;;;5035278;28;20214;-50
2022/10/11 04:48:15;;;;;;;16.97;3.27;;;8.40;99.90;;;;;;5025124;28;20222;-47
2022/10/11 04:50:44;;;;;;;6.23;2.40;;;8.30;99.90;;;;;;5018428;28;20206;-49
2022/10/11 04:53:16;;;;;;;14.40;2.93;;;8.30;99.90;;;;;;5029486;28;20199;-47
2022/10/11 04:55:42;;;;;;;11.57;2.53;;;8.30;99.90;;;;;;5038076;28;20210;-50
2022/10/11 04:58:10;;;;;;;7.40;2.50;;;8.30;99.90;;;;;;5034646;28;20210;-49
2022/10/11 05:00:36;;;;;;;15.27;2.70;;;8.30;99.90;;;;;;5041965;28;20188;-47
2022/10/11 05:03:04;;;;;;;9.33;2.43;;;8.30;99.90;;;;;;5031371;28;20215;-51
2022/10/11 05:05:32;;;;;;;13.70;2.77;;;8.20;99.90;;;;;;5024814;28;20215;-49
2022/10/11 05:07:58;;;;;;;13.50;3.20;;;8.20;99.90;;;;;;5039928;28;20195;-49
2022/10/11 05:10:25;;;;;;;8.27;3.30;;;8.20;99.90;;;;;;5038521;28;20215;-51
2022/10/11 05:12:52;;;;;;;7.70;2.23;;;8.20;99.90;;;;;;5032832;28;20207;-52
2022/10/11 05:15:19;;;;;;;11.20;2.30;;;8.20;99.90;;;;;;5036297;28;20188;-49
2022/10/11 05:17:46;;;;;;;6.73;2.10;;;8.20;99.90;;;;;;5037782;28;20661;-48
2022/10/11 05:20:12;;;;;;;7.07;2.27;;;8.20;99.90;;;;;;5027105;28;20223;-49
2022/10/11 05:22:41;;;;;;;10.13;2.80;;;8.10;99.90;;;;;;5028032;28;20223;-48
2022/10/11 05:25:08;;;;;;;11.13;2.23;;;8.10;99.90;;;;;;5028039;28;20192;-49
2022/10/11 05:27:35;;;;;;;12.17;2.73;;;8.10;99.90;;;;;;5033320;28;20728;-49
2022/10/11 05:30:01;;;;;;;6.63;2.50;;;8.10;99.90;;;;;;5033947;28;20238;-50
2022/10/11 05:32:28;;;;;;;10.40;2.70;;;8.10;99.90;;;;;;5036001;28;20214;-49
2022/10/11 05:34:55;;;;;;;8.60;2.47;;;8.10;99.90;;;;;;5031255;28;20568;-52
2022/10/11 05:37:22;;;;;;;6.07;2.30;;;8.00;99.90;;;;;;5020776;28;20222;-47
2022/10/11 05:39:50;;;;;;;10.90;2.30;;;7.90;99.90;;;;;;5041979;28;20218;-48
2022/10/11 05:42:17;;;;;;;9.73;2.10;;;7.90;99.90;;;;;;5033576;28;20246;-49
2022/10/11 05:44:45;;;;;;;8.23;2.90;;;7.80;99.90;;;;;;5036889;28;20199;-48
2022/10/11 05:47:11;;;;;;;8.43;1.77;;;7.90;99.90;;;;;;5034233;28;20805;-51
2022/10/11 05:49:38;;;;;;;6.73;2.37;;;7.90;99.90;;;;;;5032625;28;20310;-48
2022/10/11 05:52:07;;;;;;;7.53;1.93;;;7.80;99.90;;;;;;5017709;28;20200;-52
2022/10/11 05:54:35;;;;;;;9.13;3.03;;;7.80;99.90;;;;;;5038038;28;20199;-51
2022/10/11 05:57:04;;;;;;;7.07;2.20;;;7.90;99.90;;;;;;5033299;28;20196;-53
2022/10/11 05:59:31;;;;;;;11.77;3.43;;;7.90;99.90;;;;;;5037048;28;20235;-48
2022/10/11 06:01:58;;;;;;;4.23;2.47;;;7.90;99.90;;;;;;5038116;28;20223;-53
2022/10/11 06:04:24;;;;;;;6.90;3.00;;;7.90;99.90;;;;;;5038306;28;20200;-50
2022/10/11 06:06:51;;;;;;;8.10;2.87;;;7.90;99.90;;;;;;5034960;28;20222;-53
2022/10/11 06:09:18;;;;;;;14.23;2.40;;;7.90;99.90;;;;;;5027125;28;20223;-47
2022/10/11 06:11:45;;;;;;;6.37;2.50;;;7.90;99.90;;;;;;5038172;28;20556;-52
2022/10/11 06:14:14;;;;;;;8.40;2.73;;;7.90;99.90;;;;;;5031782;28;20195;-49
2022/10/11 06:16:40;;;;;;;9.80;2.30;;;7.90;99.90;;;;;;5036672;28;20660;-50
2022/10/11 06:19:07;;;;;;;14.77;3.30;;;7.90;99.90;;;;;;5035529;28;20234;-49
2022/10/11 06:21:34;;;;;;;12.83;3.07;;;7.90;99.90;;;;;;5038881;28;20711;-54
2022/10/11 06:24:01;;;;;;;7.53;2.40;;;7.90;99.90;;;;;;5024747;28;20951;-47
2022/10/11 06:26:29;;;;;;;8.23;3.10;;;7.90;99.90;;;;;;5045210;28;20199;-49
2022/10/11 06:28:55;;;;;;;7.23;2.53;;;7.90;99.90;;;;;;5034637;28;20227;-52
2022/10/11 06:31:24;;;;;;;12.70;2.73;;;7.90;99.90;;;;;;5045005;28;20257;-52
2022/10/11 06:33:51;;;;;;;8.23;3.33;;;7.90;99.90;;;;;;5037430;28;20223;-49
2022/10/11 06:36:17;;;;;;;11.80;3.10;;;8.00;99.90;;;;;;5034467;28;20594;-50
2022/10/11 06:38:45;;;;;;;8.83;2.43;;;8.00;99.90;;;;;;5028831;28;20227;-49
2022/10/11 06:41:15;;;;;;;12.53;2.73;;;8.00;99.90;;;;;;5040049;28;20722;-47
2022/10/11 06:43:41;;;;;;;8.33;2.50;;;8.10;99.90;;;;;;5035273;28;20227;-49
2022/10/11 06:46:10;;;;;;;17.30;3.30;;;8.10;99.90;;;;;;5020734;28;20191;-49
2022/10/11 06:48:42;;;;;;;6.83;2.30;;;8.20;99.90;;;;;;5023807;28;20231;-48
2022/10/11 06:51:08;;;;;;;7.63;2.77;;;8.20;99.90;;;;;;5022206;28;20392;-50
2022/10/11 06:53:35;;;;;;;8.37;3.10;;;8.30;99.90;;;;;;5035060;28;20307;-49
2022/10/11 06:56:03;;;;;;;13.80;2.83;;;8.30;99.90;;;;;;5017440;28;20265;-51
2022/10/11 06:58:30;;;;;;;9.00;2.90;;;8.40;99.90;;;;;;5032681;28;20227;-49
2022/10/11 07:01:00;;;;;;;10.90;3.40;;;8.50;99.90;;;;;;5020204;28;20985;-49
2022/10/11 07:03:26;;;;;;;14.07;3.20;;;8.50;99.90;;;;;;5032345;28;20226;-50
2022/10/11 07:05:54;;;;;;;14.20;3.17;;;8.60;99.90;;;;;;5032683;28;20207;-53
2022/10/11 07:08:21;;;;;;;10.30;3.10;;;8.60;99.90;;;;;;5031028;28;20203;-49
2022/10/11 07:10:48;;;;;;;9.77;3.00;;;8.70;99.90;;;;;;5022711;28;20208;-51
2022/10/11 07:13:14;;;;;;;6.03;2.90;;;8.80;99.90;;;;;;5036009;28;20191;-51
2022/10/11 07:15:41;;;;;;;10.17;2.90;;;8.80;99.90;;;;;;5031300;28;20214;-47
2022/10/11 07:18:08;;;;;;;8.70;2.87;;;8.90;99.90;;;;;;5033196;28;20187;-49
2022/10/11 07:20:36;;;;;;;13.10;3.03;;;8.90;99.90;;;;;;5031960;28;20256;-49
2022/10/11 07:23:04;;;;;;;15.03;3.53;;;9.00;99.90;;;;;;5025169;28;20223;-50
2022/10/11 07:25:31;;;;;;;9.23;2.47;;;9.10;99.90;;;;;;5014477;28;20229;-49
2022/10/11 07:27:58;;;;;;;13.50;3.20;;;9.10;99.90;;;;;;5031217;28;20200;-51
2022/10/11 07:30:25;;;;;;;9.63;3.13;;;9.30;99.90;;;;;;5021709;28;20245;-47
2022/10/11 07:32:51;;;;;;;12.30;3.00;;;9.30;99.90;;;;;;5027958;28;20195;-51
2022/10/11 07:35:18;;;;;;;14.37;4.27;;;9.40;99.90;;;;;;5037558;28;20211;-49
2022/10/11 07:37:45;;;;;;;9.27;3.53;;;9.50;99.90;;;;;;5027176;28;20229;-51
2022/10/11 07:40:13;;;;;;;10.37;2.53;;;9.60;99.90;;;;;;5017473;28;21025;-49
2022/10/11 07:42:40;;;;;;;10.63;2.97;;;9.70;99.90;;;;;;5035370;28;20266;-52
2022/10/11 07:45:07;;;;;;;9.73;2.00;;;9.80;99.90;;;;;;5037571;28;20202;-48
2022/10/11 07:47:34;;;;;;;12.13;2.83;;;9.90;99.90;;;;;;5028124;28;20211;-49
2022/10/11 07:50:00;;;;;;;5.80;2.00;;;10.00;99.90;;;;;;5024895;28;22320;-51
2022/10/11 07:52:27;;;;;;;6.67;2.27;;;10.10;99.90;;;;;;5037672;28;20768;-48
2022/10/11 07:54:54;;;;;;;12.00;2.20;;;10.10;99.90;;;;;;5015174;28;20207;-51
2022/10/11 07:57:22;;;;;;;8.90;2.30;;;10.20;99.90;;;;;;5021652;28;20545;-49
2022/10/11 07:59:49;;;;;;;5.53;1.90;;;10.30;99.90;;;;;;5033037;28;20222;-52
2022/10/11 08:02:15;;;;;;;8.70;2.03;;;10.40;99.90;;;;;;5033911;28;20203;-52
2022/10/11 08:04:43;;;;;;;8.77;2.20;;;10.50;99.90;;;;;;5034669;28;20210;-48
2022/10/11 08:07:09;;;;;;;7.70;1.90;;;10.50;99.90;;;;;;5031653;28;20947;-47
2022/10/11 08:09:37;;;;;;;7.33;1.83;;;10.60;99.90;;;;;;5034317;28;20227;-51
2022/10/11 08:12:03;;;;;;;8.70;2.07;;;10.70;99.90;;;;;;5020843;28;20215;-49
2022/10/11 08:14:32;;;;;;;6.10;1.70;;;10.70;99.90;;;;;;5039560;28;20192;-47
2022/10/11 08:16:58;;;;;;;8.00;2.10;;;10.80;99.90;;;;;;5031298;28;20196;-49
2022/10/11 08:19:26;;;;;;;10.80;2.03;;;10.80;99.90;;;;;;5038231;28;20304;-48
2022/10/11 08:21:52;;;;;;;10.80;1.90;;;10.90;99.90;;;;;;5028735;28;20215;-51
2022/10/11 08:24:19;;;;;;;10.07;1.93;;;10.90;99.90;;;;;;5026557;28;20230;-52
2022/10/11 08:26:47;;;;;;;8.80;1.90;;;11.00;99.90;;;;;;5028319;28;20202;-49
2022/10/11 08:29:14;;;;;;;7.77;1.97;;;11.10;99.90;;;;;;5030654;28;20246;-52
2022/10/11 08:31:43;;;;;;;10.50;1.77;;;11.20;99.90;;;;;;5030521;28;20195;-49
2022/10/11 08:34:10;;;;;;;6.33;1.70;;;11.20;99.90;;;;;;5035290;28;20184;-49
2022/10/11 08:36:37;;;;;;;10.27;1.97;;;11.30;99.90;;;;;;5037811;28;20214;-47
2022/10/11 08:39:04;;;;;;;9.90;2.23;;;11.40;99.90;;;;;;5021102;28;20229;-46
2022/10/11 08:41:38;;;;;;;7.47;1.90;;;11.50;99.90;;;;;;5041650;28;20287;-48
2022/10/11 08:44:17;;;;;;;4.00;1.60;;;11.50;99.90;;;;;;5008107;28;21402;-47
2022/10/11 08:46:48;;;;;;;9.77;1.70;;;11.60;99.90;;;;;;5031912;28;20278;-47
2022/10/11 08:49:26;;;;;;;13.00;1.90;;;11.70;99.90;;;;;;5038915;28;20203;-46
2022/10/11 08:52:01;;;;;;;6.97;1.80;;;11.60;99.90;;;;;;5038831;28;20191;-49
2022/10/11 08:54:37;;;;;;;7.97;2.37;;;11.70;99.90;;;;;;5035049;28;20234;-44
2022/10/11 08:57:07;;;;;;;7.70;1.67;;;11.70;99.90;;;;;;5034338;28;20261;-48
2022/10/11 08:59:40;;;;;;;10.23;1.67;;;11.80;99.90;;;;;;5026434;28;20239;-45
2022/10/11 09:02:23;;;;;;;7.77;2.07;;;11.90;99.90;;;;;;5035851;28;20213;-45
2022/10/11 09:04:51;;;;;;;9.20;2.07;;;12.00;99.90;;;;;;5038539;28;20215;-47
2022/10/11 09:07:29;;;;;;;9.40;1.80;;;12.20;99.90;;;;;;5042190;28;20660;-45
2022/10/11 09:10:10;;;;;;;10.60;2.30;;;12.40;99.90;;;;;;5039033;28;20211;-45
2022/10/11 09:12:49;;;;;;;8.23;2.07;;;12.50;99.90;;;;;;5036717;28;20284;-46
2022/10/11 09:15:24;;;;;;;7.77;1.97;;;12.50;99.90;;;;;;5020677;28;20211;-45
2022/10/11 09:18:14;;;;;;;6.97;2.23;;;12.50;99.90;;;;;;5040212;28;20191;-47
2022/10/11 09:20:54;;;;;;;7.10;1.57;;;12.50;99.90;;;;;;5035190;28;20203;-50
2022/10/11 09:23:34;;;;;;;9.07;2.27;;;12.50;99.90;;;;;;5042160;28;20257;-46
2022/10/11 09:26:06;;;;;;;6.53;1.90;;;12.60;99.90;;;;;;5031842;28;20207;-48
2022/10/11 09:28:49;;;;;;;11.63;2.10;;;12.60;99.90;;;;;;5037798;28;20233;-48
2022/10/11 09:31:17;;;;;;;8.37;1.60;;;12.60;99.90;;;;;;5014461;28;20234;-46
2022/10/11 09:33:47;;;;;;;10.63;2.07;;;12.60;99.90;;;;;;5040265;28;20183;-47
2022/10/11 09:36:20;;;;;;;7.43;1.90;;;12.70;99.90;;;;;;5043225;28;20191;-48
2022/10/11 09:38:54;;;;;;;10.07;2.10;;;12.70;99.90;;;;;;5044318;28;20223;-49
2022/10/11 09:41:29;;;;;;;13.30;2.23;;;12.80;99.90;;;;;;5040803;28;20199;-46
2022/10/11 09:43:55;;;;;;;5.97;1.77;;;12.90;99.90;;;;;;5036206;28;20250;-46
2022/10/11 09:46:28;;;;;;;10.97;2.07;;;12.90;99.90;;;;;;5031518;28;20211;-47
2022/10/11 09:48:57;;;;;;;3.30;1.27;;;13.00;99.90;;;;;;5029124;28;20704;-49
2022/10/11 09:51:27;;;;;;;9.00;1.73;;;13.20;99.90;;;;;;5030979;28;20803;-49
2022/10/11 09:53:56;;;;;;;13.23;1.90;;;13.30;99.90;;;;;;5037677;28;20206;-49
2022/10/11 09:56:25;;;;;;;8.60;2.50;;;13.40;99.90;;;;;;5025321;28;20284;-48
2022/10/11 09:59:07;;;;;;;8.40;1.77;;;13.50;99.90;;;;;;5043560;28;20218;-51
2022/10/11 10:01:34;;;;;;;6.93;2.43;;;13.60;99.90;;;;;;5020580;28;20843;-49
2022/10/11 10:04:08;;;;;;;10.87;1.67;;;13.50;99.90;;;;;;5038428;28;20223;-47
2022/10/11 10:06:36;;;;;;;7.20;1.40;;;13.50;99.90;;;;;;5042485;28;20225;-50
2022/10/11 10:09:22;;;;;;;11.53;1.90;;;13.50;99.90;;;;;;5045206;28;20211;-48
2022/10/11 10:11:48;;;;;;;8.43;1.90;;;13.40;99.90;;;;;;5024937;28;20216;-46
2022/10/11 10:14:24;;;;;;;11.00;2.40;;;13.40;99.90;;;;;;5032337;28;20200;-46
2022/10/11 10:17:00;;;;;;;11.03;2.63;;;13.40;99.90;;;;;;5030941;28;20211;-46
2022/10/11 10:19:29;;;;;;;11.43;1.60;;;13.30;99.90;;;;;;5036813;28;20215;-49
2022/10/11 10:21:56;;;;;;;5.57;1.17;;;13.30;99.90;;;;;;5046271;28;20253;-46
2022/10/11 10:24:34;;;;;;;12.00;2.07;;;13.30;99.90;;;;;;5040895;28;20234;-45
2022/10/11 10:27:16;;;;;;;8.53;2.00;;;13.20;99.90;;;;;;5040922;28;20203;-48
2022/10/11 10:29:44;;;;;;;7.73;2.43;;;13.30;99.90;;;;;;5032638;28;20227;-48
2022/10/11 10:32:13;;;;;;;6.87;1.67;;;13.40;99.90;;;;;;5026440;28;20215;-48
2022/10/11 10:34:58;;;;;;;6.20;1.90;;;13.50;99.90;;;;;;5040159;28;20202;-47
2022/10/11 10:37:28;;;;;;;11.43;1.80;;;13.60;99.90;;;;;;5041876;28;20250;-48
2022/10/11 10:40:01;;;;;;;12.40;2.10;;;13.70;99.90;;;;;;5045467;28;20235;-49
2022/10/11 10:42:28;;;;;;;7.30;1.40;;;13.80;99.90;;;;;;5041772;28;20801;-49
2022/10/11 10:44:58;;;;;;;7.50;2.00;;;13.80;99.90;;;;;;5037127;28;20230;-46
2022/10/11 10:47:44;;;;;;;6.80;1.70;;;13.90;99.90;;;;;;5026523;28;20227;-48
2022/10/11 10:50:18;;;;;;;8.17;2.23;;;13.80;99.90;;;;;;5038742;28;20305;-50
2022/10/11 10:52:49;;;;;;;4.43;1.83;;;13.80;99.90;;;;;;5044834;28;20645;-48
2022/10/11 10:55:27;;;;;;;11.13;1.93;;;13.80;99.90;;;;;;5036943;28;20203;-51
2022/10/11 10:58:30;;;;;;;5.77;1.90;;;13.80;99.90;;;;;;5041415;28;20276;-49
2022/10/11 11:01:05;;;;;;;5.27;1.70;;;13.80;99.90;;;;;;5038214;28;20207;-47
2022/10/11 11:03:40;;;;;;;7.30;1.60;;;13.80;99.90;;;;;;5031905;28;20215;-47
2022/10/11 11:06:16;;;;;;;10.30;2.00;;;13.70;99.90;;;;;;5038634;28;20207;-53
2022/10/11 11:08:57;;;;;;;10.83;1.90;;;13.80;99.90;;;;;;5043457;28;20214;-47
2022/10/11 11:11:42;;;;;;;11.03;1.67;;;13.80;99.90;;;;;;5035598;28;20926;-49
2022/10/11 11:14:21;;;;;;;5.17;1.70;;;13.90;99.90;;;;;;5042746;28;20207;-50
2022/10/11 11:16:55;;;;;;;7.13;1.93;;;13.90;99.90;;;;;;5015252;28;20207;-49
2022/10/11 11:19:36;;;;;;;10.23;1.90;;;14.00;99.90;;;;;;5038057;28;20233;-51
2022/10/11 11:22:14;;;;;;;6.63;1.83;;;14.00;99.90;;;;;;5036063;28;20207;-49
2022/10/11 11:24:48;;;;;;;6.30;1.43;;;14.00;99.90;;;;;;5042457;28;20215;-51
2022/10/11 11:27:30;;;;;;;7.07;1.60;;;14.10;99.90;;;;;;5042478;28;20199;-48
2022/10/11 11:30:03;;;;;;;4.87;1.27;;;14.10;99.90;;;;;;5044103;28;20222;-46
2022/10/11 11:32:41;;;;;;;11.43;1.63;;;14.30;99.90;;;;;;5014108;28;20214;-47
2022/10/11 11:35:12;;;;;;;4.23;1.37;;;14.40;99.90;;;;;;5035926;28;20198;-52
2022/10/11 11:37:43;;;;;;;7.70;2.03;;;14.40;99.90;;;;;;5040427;28;20195;-49
2022/10/11 11:40:16;;;;;;;6.17;1.57;;;14.40;99.90;;;;;;5036920;28;20227;-50
2022/10/11 11:42:48;;;;;;;6.87;1.70;;;14.40;99.90;;;;;;5042896;28;20204;-46
2022/10/11 11:45:18;;;;;;;9.87;2.00;;;14.30;99.90;;;;;;5036772;28;20207;-52
2022/10/11 11:47:51;;;;;;;10.00;2.10;;;14.40;99.90;;;;;;5037648;28;20660;-49
2022/10/11 11:50:22;;;;;;;7.73;1.70;;;14.40;99.90;;;;;;5024225;28;20254;-49
2022/10/11 11:52:53;;;;;;;7.03;1.57;;;14.40;99.90;;;;;;5039209;28;20203;-46
2022/10/11 11:55:29;;;;;;;11.10;2.87;;;14.30;99.90;;;;;;5039491;28;20274;-49
2022/10/11 11:58:07;;;;;;;13.27;2.17;;;14.30;99.90;;;;;;5037916;28;20211;-47
2022/10/11 12:00:38;;;;;;;6.10;1.90;;;14.20;99.90;;;;;;5035863;28;20253;-46
2022/10/11 12:03:11;;;;;;;6.00;1.07;;;14.20;99.90;;;;;;5033789;28;20305;-46
2022/10/11 12:05:38;;;;;;;8.07;1.60;;;14.20;99.90;;;;;;5029262;28;20222;-47
2022/10/11 12:08:08;;;;;;;6.27;1.70;;;14.20;99.90;;;;;;5021153;28;20206;-47
2022/10/11 12:10:38;;;;;;;9.47;1.50;;;14.10;99.90;;;;;;5036457;28;20228;-50
2022/10/11 12:13:20;;;;;;;8.63;2.00;;;14.20;99.90;;;;;;5028926;28;20282;-45
2022/10/11 12:16:08;;;;;;;6.80;1.80;;;14.20;99.90;;;;;;5030086;28;20187;-48
2022/10/11 12:18:46;;;;;;;7.30;1.57;;;14.20;99.90;;;;;;5009766;28;20224;-49
2022/10/11 12:21:21;;;;;;;8.67;1.53;;;14.20;99.90;;;;;;5014025;28;20195;-45
2022/10/11 12:23:51;;;;;;;6.70;1.97;;;14.20;99.90;;;;;;5026463;28;20211;-50
2022/10/11 12:26:39;;;;;;;7.07;1.67;;;14.30;99.90;;;;;;5021942;28;20219;-47
2022/10/11 12:29:39;;;;;;;8.70;1.80;;;14.30;99.90;;;;;;5024524;28;20238;-48
2022/10/11 12:32:50;;;;;;;7.47;1.63;;;14.30;99.90;;;;;;5020334;28;20238;-47
2022/10/11 12:36:01;;;;;;;10.20;2.17;;;14.20;99.90;;;;;;5017158;28;20196;-46
2022/10/11 12:38:30;;;;;;;9.87;1.60;;;14.20;99.90;;;;;;5039103;28;20336;-46
2022/10/11 12:41:00;;;;;;;6.57;1.43;;;14.20;99.90;;;;;;5027833;28;20217;-49
2022/10/11 12:43:34;;;;;;;11.00;1.97;;;14.30;99.90;;;;;;5030640;28;20211;-47
2022/10/11 12:46:39;;;;;;;4.87;1.97;;;14.40;99.90;;;;;;5029799;28;20299;-47
2022/10/11 12:49:21;;;;;;;8.27;2.17;;;14.70;99.90;;;;;;5016818;28;20231;-49
2022/10/11 12:51:59;;;;;;;10.23;3.47;;;14.80;99.90;;;;;;5031278;28;20200;-46
2022/10/11 12:54:51;;;;;;;10.57;2.00;;;14.80;99.90;;;;;;5018812;28;20676;-49
2022/10/11 12:57:40;;;;;;;11.33;2.60;;;14.80;99.90;;;;;;5022225;28;20199;-46
2022/10/11 13:00:19;;;;;;;8.57;1.90;;;14.70;99.90;;;;;;5016983;28;20361;-47
2022/10/11 13:02:48;;;;;;;8.90;1.67;;;14.70;99.90;;;;;;5030725;28;20210;-48
2022/10/11 13:05:22;;;;;;;11.90;2.17;;;14.60;99.90;;;;;;5005943;28;20215;-46
2022/10/11 13:07:50;;;;;;;7.97;1.93;;;14.60;99.90;;;;;;5031643;28;20203;-48
2022/10/11 13:10:22;;;;;;;4.40;1.30;;;14.60;99.90;;;;;;5034685;28;20335;-49
2022/10/11 13:12:52;;;;;;;6.80;1.47;;;14.60;99.90;;;;;;5043980;28;20202;-51